createdAt,value
2022-12-19T00:00:35.485Z,3.54
2022-12-19T00:03:03.337Z,3.59
2022-12-19T00:05:31.115Z,3.70
2022-12-19T00:07:58.996Z,3.86
2022-12-19T00:10:30.224Z,3.61
2022-12-19T00:12:57.969Z,3.65
2022-12-19T00:15:25.717Z,3.94
2022-12-19T00:17:54.801Z,3.67
2022-12-19T00:20:22.550Z,3.55
2022-12-19T00:22:51.090Z,3.62
2022-12-19T00:25:26.129Z,3.87
2022-12-19T00:27:54.268Z,3.77
2022-12-19T00:30:22.036Z,3.74
2022-12-19T00:32:50.515Z,3.70
2022-12-19T00:35:19.643Z,3.71
2022-12-19T00:37:49.745Z,3.58
2022-12-19T00:40:18.157Z,3.63
2022-12-19T00:42:51.647Z,3.62
2022-12-19T00:45:21.255Z,3.68
2022-12-19T00:47:49.026Z,3.70
2022-12-19T00:50:16.939Z,3.65
2022-12-19T00:52:46.879Z,3.64
2022-12-19T00:55:18.834Z,3.70
2022-12-19T00:57:47.131Z,3.65
2022-12-19T01:00:16.538Z,3.74
2022-12-19T01:02:45.147Z,3.74
2022-12-19T01:05:13.011Z,3.65
2022-12-19T01:07:42.164Z,3.68
2022-12-19T01:10:11.583Z,3.74
2022-12-19T01:12:47.431Z,3.88
2022-12-19T01:15:17.024Z,3.89
2022-12-19T01:17:45.199Z,3.92
2022-12-19T01:20:15.107Z,3.90
2022-12-19T01:22:43.016Z,4.10
2022-12-19T01:25:12.412Z,4.11
2022-12-19T01:27:40.276Z,3.92
2022-12-19T01:30:09.220Z,4.09
2022-12-19T01:32:37.608Z,4.06
2022-12-19T01:35:06.086Z,4.25
2022-12-19T01:37:37.642Z,4.26
2022-12-19T01:40:06.328Z,4.34
2022-12-19T01:42:37.743Z,4.30
2022-12-19T01:45:21.103Z,4.19
2022-12-19T01:47:53.467Z,4.25
2022-12-19T01:50:25.984Z,4.49
2022-12-19T01:52:54.461Z,4.44
2022-12-19T01:55:22.684Z,4.34
2022-12-19T01:57:53.037Z,4.47
2022-12-19T02:00:20.918Z,4.46
2022-12-19T02:02:54.107Z,4.43
2022-12-19T02:05:22.316Z,4.45
2022-12-19T02:07:50.648Z,4.46
2022-12-19T02:10:18.464Z,4.46
2022-12-19T02:12:47.075Z,4.54
2022-12-19T02:15:16.979Z,4.38
2022-12-19T02:17:58.672Z,4.42
2022-12-19T02:21:06.803Z,4.38
2022-12-19T02:23:57.861Z,4.75
2022-12-19T02:26:47.654Z,4.67
2022-12-19T02:29:42.824Z,4.72
2022-12-19T02:32:19.567Z,4.89
2022-12-19T02:34:52.470Z,4.80
2022-12-19T02:37:22.331Z,4.74
2022-12-19T02:39:53.726Z,5.02
2022-12-19T02:42:26.913Z,5.09
2022-12-19T02:45:02.467Z,4.97
2022-12-19T02:47:33.384Z,5.05
2022-12-19T02:50:02.857Z,5.20
2022-12-19T02:52:50.027Z,5.35
2022-12-19T02:55:23.881Z,5.19
2022-12-19T02:58:10.170Z,5.44
2022-12-19T03:00:44.984Z,5.57
2022-12-19T03:03:21.331Z,5.81
2022-12-19T03:05:56.851Z,5.73
2022-12-19T03:08:26.462Z,5.99
2022-12-19T03:10:59.452Z,5.91
2022-12-19T03:13:30.282Z,6.05
2022-12-19T03:15:59.556Z,5.95
2022-12-19T03:18:29.019Z,5.87
2022-12-19T03:21:04.079Z,6.05
2022-12-19T03:23:32.173Z,5.93
2022-12-19T03:26:02.785Z,6.09
2022-12-19T03:28:36.266Z,5.99
2022-12-19T03:31:05.214Z,5.91
2022-12-19T03:33:35.523Z,6.12
2022-12-19T03:36:06.583Z,6.04
2022-12-19T03:38:36.241Z,5.95
2022-12-19T03:41:05.018Z,6.01
2022-12-19T03:43:32.473Z,5.85
2022-12-19T03:46:03.859Z,6.07
2022-12-19T03:48:36.214Z,5.99
2022-12-19T03:51:15.030Z,5.86
2022-12-19T03:53:49.283Z,5.88
2022-12-19T03:56:22.169Z,5.99
2022-12-19T03:58:53.732Z,6.04
2022-12-19T04:01:22.230Z,5.89
2022-12-19T04:03:51.683Z,5.85
2022-12-19T04:06:19.791Z,5.88
2022-12-19T04:08:48.008Z,5.97
2022-12-19T04:11:18.955Z,5.98
2022-12-19T04:13:50.596Z,5.87
2022-12-19T04:16:24.620Z,6.09
2022-12-19T04:18:57.630Z,6.23
2022-12-19T04:21:29.244Z,6.29
2022-12-19T04:24:00.405Z,6.13
2022-12-19T04:26:28.885Z,6.09
2022-12-19T04:29:00.873Z,6.04
2022-12-19T04:31:28.866Z,5.94
2022-12-19T04:33:58.041Z,5.89
2022-12-19T04:36:26.441Z,5.90
2022-12-19T04:38:54.177Z,5.76
2022-12-19T04:41:21.889Z,5.98
2022-12-19T04:43:49.753Z,5.99
2022-12-19T04:46:17.534Z,6.07
2022-12-19T04:48:45.265Z,6.29
2022-12-19T04:51:14.585Z,6.24
2022-12-19T04:53:42.252Z,6.16
2022-12-19T04:56:11.421Z,5.95
2022-12-19T04:58:39.208Z,6.15
2022-12-19T05:01:08.504Z,6.21
2022-12-19T05:03:37.138Z,6.31
2022-12-19T05:06:07.086Z,6.45
2022-12-19T05:08:36.972Z,6.23
2022-12-19T05:11:05.605Z,6.25
2022-12-19T05:13:33.540Z,6.33
2022-12-19T05:16:02.951Z,6.26
2022-12-19T05:18:31.382Z,6.34
2022-12-19T05:20:59.449Z,6.27
2022-12-19T05:23:27.217Z,6.25
2022-12-19T05:25:58.572Z,6.49
2022-12-19T05:28:26.453Z,6.51
2022-12-19T05:30:54.242Z,6.43
2022-12-19T05:33:22.044Z,6.50
2022-12-19T05:35:50.377Z,6.61
2022-12-19T05:38:18.079Z,6.67
2022-12-19T05:40:45.866Z,6.73
2022-12-19T05:43:14.960Z,6.85
2022-12-19T05:45:42.753Z,6.89
2022-12-19T05:48:10.453Z,6.81
2022-12-19T05:50:38.262Z,6.62
2022-12-19T05:53:10.414Z,6.41
2022-12-19T05:55:38.138Z,6.45
2022-12-19T05:58:05.907Z,6.60
2022-12-19T06:00:35.105Z,6.76
2022-12-19T06:03:03.047Z,6.72
2022-12-19T06:05:31.277Z,6.59
2022-12-19T06:07:58.996Z,6.48
2022-12-19T06:10:27.486Z,6.62
2022-12-19T06:12:55.263Z,6.50
2022-12-19T06:15:23.093Z,6.52
2022-12-19T06:17:55.433Z,6.54
2022-12-19T06:20:23.569Z,6.67
2022-12-19T06:22:51.406Z,6.63
2022-12-19T06:25:19.171Z,6.59
2022-12-19T06:27:46.879Z,6.57
2022-12-19T06:30:15.392Z,6.53
2022-12-19T06:32:43.127Z,6.61
2022-12-19T06:35:12.432Z,6.51
2022-12-19T06:37:40.143Z,6.71
2022-12-19T06:40:29.730Z,6.98
2022-12-19T06:42:56.481Z,6.71
2022-12-19T06:45:24.282Z,6.61
2022-12-19T06:47:52.004Z,6.60
2022-12-19T06:50:21.092Z,6.59
2022-12-19T06:52:49.001Z,6.63
2022-12-19T06:55:16.814Z,6.43
2022-12-19T06:57:46.403Z,6.59
2022-12-19T07:00:15.055Z,6.74
2022-12-19T07:02:44.847Z,6.69
2022-12-19T07:05:13.758Z,6.86
2022-12-19T07:07:42.888Z,6.98
2022-12-19T07:10:11.320Z,6.93
2022-12-19T07:12:39.149Z,6.86
2022-12-19T07:15:07.935Z,7.15
2022-12-19T07:17:38.956Z,7.32
2022-12-19T07:20:07.737Z,7.36
2022-12-19T07:22:36.496Z,7.17
2022-12-19T07:25:06.984Z,7.38
2022-12-19T07:27:36.213Z,7.29
2022-12-19T07:30:05.673Z,7.31
2022-12-19T07:32:33.407Z,7.42
2022-12-19T07:35:01.173Z,7.38
2022-12-19T07:37:29.041Z,7.35
2022-12-19T07:39:56.805Z,7.58
2022-12-19T07:42:30.764Z,7.62
2022-12-19T07:45:00.483Z,7.53
2022-12-19T07:47:28.519Z,7.53
2022-12-19T07:49:56.275Z,7.45
2022-12-19T07:52:24.009Z,7.68
2022-12-19T07:54:51.900Z,7.79
2022-12-19T07:57:19.697Z,7.62
2022-12-19T07:59:48.759Z,7.82
2022-12-19T08:02:16.609Z,7.90
2022-12-19T08:04:44.380Z,8.17
2022-12-19T08:07:12.760Z,7.98
2022-12-19T08:09:40.550Z,8.13
2022-12-19T08:12:08.550Z,8.25
2022-12-19T08:14:36.330Z,8.34
2022-12-19T08:17:21.854Z,8.09
2022-12-19T08:19:49.937Z,8.10
2022-12-19T08:22:17.707Z,7.98
2022-12-19T08:24:45.479Z,8.26
2022-12-19T08:27:13.204Z,8.20
2022-12-19T08:29:40.947Z,8.27
2022-12-19T08:32:11.582Z,8.54
2022-12-19T08:34:41.538Z,8.39
2022-12-19T08:37:09.476Z,8.01
2022-12-19T08:39:37.186Z,8.38
2022-12-19T08:42:05.040Z,8.49
2022-12-19T08:44:32.858Z,8.28
2022-12-19T08:47:00.620Z,8.36
2022-12-19T08:49:29.733Z,8.60
2022-12-19T08:51:57.555Z,8.57
2022-12-19T08:54:25.281Z,8.41
2022-12-19T08:56:53.001Z,8.50
2022-12-19T08:59:30.563Z,8.33
2022-12-19T09:02:00.333Z,8.43
2022-12-19T09:05:57.791Z,8.41
2022-12-19T09:07:18.059Z,8.49
2022-12-19T09:09:46.522Z,8.63
2022-12-19T09:12:15.040Z,8.65
2022-12-19T09:14:44.062Z,8.49
2022-12-19T09:17:11.920Z,8.75
2022-12-19T09:19:41.561Z,8.53
2022-12-19T09:22:15.966Z,8.57
2022-12-19T09:24:43.736Z,8.46
2022-12-19T09:27:11.479Z,8.83
2022-12-19T09:29:39.550Z,8.98
2022-12-19T09:32:07.372Z,8.87
2022-12-19T09:34:38.655Z,9.17
2022-12-19T09:37:11.653Z,9.02
2022-12-19T09:39:46.264Z,9.07
2022-12-19T09:42:41.409Z,8.98
2022-12-19T09:45:31.757Z,9.02
2022-12-19T09:48:01.768Z,9.32
2022-12-19T09:50:40.599Z,9.25
2022-12-19T09:53:17.851Z,9.07
2022-12-19T09:55:46.477Z,9.28
2022-12-19T09:58:20.687Z,9.25
2022-12-19T10:00:56.049Z,9.46
2022-12-19T10:03:30.557Z,9.53
2022-12-19T10:07:11.921Z,9.66
2022-12-19T10:09:52.011Z,9.76
2022-12-19T10:12:43.073Z,9.76
2022-12-19T10:14:58.433Z,9.63
2022-12-19T10:17:31.601Z,9.61
2022-12-19T10:20:16.559Z,9.99
2022-12-19T10:22:54.843Z,9.91
2022-12-19T10:25:30.303Z,9.92
2022-12-19T10:28:03.411Z,10.14
2022-12-19T10:30:34.462Z,10.14
2022-12-19T10:33:18.333Z,10.18
2022-12-19T10:35:54.927Z,10.05
2022-12-19T10:38:27.831Z,10.16
2022-12-19T10:41:11.580Z,10.45
2022-12-19T10:43:48.329Z,10.44
2022-12-19T10:46:19.809Z,10.36
2022-12-19T10:48:48.904Z,10.41
2022-12-19T10:51:23.515Z,10.46
2022-12-19T10:53:55.106Z,10.62
2022-12-19T10:56:30.326Z,10.57
2022-12-19T10:59:03.114Z,10.42
2022-12-19T11:01:34.375Z,10.40
2022-12-19T11:04:27.688Z,10.36
2022-12-19T11:07:07.597Z,10.13
2022-12-19T11:09:38.350Z,10.17
2022-12-19T11:15:22.516Z,9.97
2022-12-19T11:19:21.571Z,10.11
2022-12-19T11:26:22.600Z,10.13
2022-12-19T11:29:32.462Z,10.28
2022-12-19T11:29:44.289Z,10.33
2022-12-19T11:30:37.765Z,10.39
2022-12-19T11:32:50.441Z,10.09
2022-12-19T11:35:24.931Z,10.02
2022-12-19T11:37:56.152Z,10.12
2022-12-19T11:40:33.543Z,10.27
2022-12-19T11:43:42.518Z,10.34
2022-12-19T11:46:01.444Z,10.23
2022-12-19T11:48:37.170Z,10.39
2022-12-19T11:51:08.851Z,10.49
2022-12-19T11:53:45.294Z,10.27
2022-12-19T11:56:16.132Z,10.24
2022-12-19T11:58:49.744Z,10.61
2022-12-19T12:01:24.148Z,10.53
2022-12-19T12:04:06.179Z,10.56
2022-12-19T12:06:36.012Z,10.68
2022-12-19T12:12:10.317Z,10.63
2022-12-19T12:19:48.619Z,10.55
2022-12-19T12:27:50.083Z,10.48
2022-12-19T12:31:07.036Z,10.78
2022-12-19T12:31:09.282Z,10.66
2022-12-19T12:31:22.092Z,10.76
2022-12-19T12:31:46.188Z,10.70
2022-12-19T12:32:04.978Z,10.62
2022-12-19T12:35:45.387Z,10.48
2022-12-19T12:38:50.213Z,10.18
2022-12-19T12:41:47.000Z,10.47
2022-12-19T12:44:15.155Z,10.34
2022-12-19T12:46:48.044Z,10.47
2022-12-19T12:49:30.290Z,10.21
2022-12-19T12:52:00.577Z,10.31
2022-12-19T12:54:33.436Z,10.38
2022-12-19T12:57:02.277Z,10.32
2022-12-19T12:59:32.867Z,10.50
2022-12-19T13:02:02.263Z,10.25
2022-12-19T13:04:35.299Z,10.48
2022-12-19T13:07:15.085Z,10.37
2022-12-19T13:09:43.067Z,10.46
2022-12-19T13:12:39.533Z,10.62
2022-12-19T13:15:37.394Z,10.62
2022-12-19T13:18:33.279Z,10.92
2022-12-19T13:21:03.475Z,10.93
2022-12-19T13:23:56.324Z,11.11
2022-12-19T13:26:56.504Z,11.09
2022-12-19T13:29:30.637Z,11.23
2022-12-19T13:32:16.154Z,11.29
2022-12-19T13:34:59.688Z,11.25
2022-12-19T13:39:51.734Z,11.26
2022-12-19T13:40:34.173Z,11.50
2022-12-19T13:43:31.272Z,11.28
2022-12-19T13:46:00.934Z,11.29
2022-12-19T13:48:32.482Z,11.18
2022-12-19T13:51:01.726Z,10.92
2022-12-19T13:53:30.941Z,10.98
2022-12-19T13:56:02.924Z,10.66
2022-12-19T13:58:32.300Z,10.94
2022-12-19T14:01:04.047Z,10.84
2022-12-19T14:03:36.157Z,10.81
2022-12-19T14:06:18.769Z,10.93
2022-12-19T14:08:48.330Z,10.84
2022-12-19T14:13:40.416Z,10.56
2022-12-19T14:14:46.929Z,10.82
2022-12-19T14:17:16.155Z,10.78
2022-12-19T14:19:46.648Z,10.86
2022-12-19T14:22:22.736Z,10.58
2022-12-19T14:25:33.396Z,10.53
2022-12-19T14:28:20.207Z,10.29
2022-12-19T14:30:38.487Z,10.12
2022-12-19T14:33:44.838Z,10.20
2022-12-19T14:36:12.308Z,10.09
2022-12-19T14:39:24.815Z,10.17
2022-12-19T14:42:01.976Z,10.13
2022-12-19T14:52:08.778Z,9.92
2022-12-19T14:52:25.213Z,10.06
2022-12-19T14:54:16.868Z,10.07
2022-12-19T14:54:22.080Z,9.94
2022-12-19T14:58:57.515Z,10.14
2022-12-19T15:01:28.495Z,10.15
2022-12-19T15:04:51.026Z,10.22
2022-12-19T15:07:08.849Z,10.14
2022-12-19T15:10:59.328Z,10.13
2022-12-19T15:14:53.358Z,10.15
2022-12-19T15:15:42.483Z,9.98
2022-12-19T15:18:24.327Z,10.25
2022-12-19T15:20:53.021Z,10.18
2022-12-19T15:23:22.641Z,10.38
2022-12-19T15:26:07.991Z,10.26
2022-12-19T15:28:40.354Z,10.17
2022-12-19T15:31:14.879Z,10.07
2022-12-19T15:34:07.220Z,10.12
2022-12-19T15:36:31.796Z,10.10
2022-12-19T15:39:00.041Z,10.03
2022-12-19T15:41:28.209Z,10.00
2022-12-19T15:44:04.765Z,10.23
2022-12-19T15:46:33.692Z,10.23
2022-12-19T15:49:03.059Z,10.12
2022-12-19T15:51:30.828Z,9.93
2022-12-19T15:54:15.528Z,9.94
2022-12-19T15:56:48.649Z,10.03
2022-12-19T15:59:26.655Z,10.09
2022-12-19T16:01:57.298Z,10.00
2022-12-19T16:04:27.183Z,10.08
2022-12-19T16:06:55.144Z,10.04
2022-12-19T16:09:25.535Z,10.13
2022-12-19T16:11:54.354Z,10.15
2022-12-19T16:14:23.050Z,10.09
2022-12-19T16:16:54.100Z,10.11
2022-12-19T16:19:27.821Z,10.14
2022-12-19T16:21:56.469Z,10.25
2022-12-19T16:24:24.878Z,10.22
2022-12-19T16:26:54.713Z,10.35
2022-12-19T16:29:24.240Z,10.63
2022-12-19T16:31:52.834Z,10.60
2022-12-19T16:34:24.175Z,10.47
2022-12-19T16:36:54.206Z,10.74
2022-12-19T16:39:22.010Z,10.50
2022-12-19T16:41:49.742Z,10.63
2022-12-19T16:44:19.615Z,10.80
2022-12-19T16:46:51.092Z,10.86
2022-12-19T16:49:22.825Z,10.87
2022-12-19T16:51:50.666Z,10.71
2022-12-19T16:54:19.986Z,10.93
2022-12-19T16:56:49.182Z,10.87
2022-12-19T16:59:19.106Z,11.06
2022-12-19T17:01:48.100Z,11.07
2022-12-19T17:04:17.362Z,11.07
2022-12-19T17:06:45.214Z,10.95
2022-12-19T17:09:15.628Z,11.33
2022-12-19T17:11:48.376Z,11.27
2022-12-19T17:14:18.470Z,11.32
2022-12-19T17:16:46.576Z,11.26
2022-12-19T17:19:21.503Z,11.44
2022-12-19T17:21:49.627Z,11.63
2022-12-19T17:24:17.775Z,11.58
2022-12-19T17:26:47.581Z,11.44
2022-12-19T17:29:15.861Z,11.57
2022-12-19T17:31:43.747Z,11.59
2022-12-19T17:34:17.385Z,11.90
2022-12-19T17:36:45.757Z,11.90
2022-12-19T17:39:21.433Z,11.64
2022-12-19T17:41:51.373Z,11.70
2022-12-19T17:44:19.385Z,11.68
2022-12-19T17:46:48.136Z,11.61
2022-12-19T17:49:17.976Z,11.59
2022-12-19T17:51:50.207Z,11.75
2022-12-19T17:54:18.000Z,11.83
2022-12-19T17:56:45.938Z,11.94
2022-12-19T17:59:15.089Z,12.10
2022-12-19T18:01:43.882Z,12.11
2022-12-19T18:04:14.867Z,12.13
2022-12-19T18:06:43.011Z,12.15
2022-12-19T18:09:19.074Z,12.02
2022-12-19T18:11:47.119Z,12.05
2022-12-19T18:14:16.701Z,11.90
2022-12-19T18:16:45.172Z,12.14
2022-12-19T18:19:17.384Z,12.04
2022-12-19T18:21:45.185Z,12.09
2022-12-19T18:24:14.809Z,12.04
2022-12-19T18:26:42.700Z,12.23
2022-12-19T18:29:10.493Z,12.20
2022-12-19T18:31:46.272Z,12.15
2022-12-19T18:34:19.578Z,12.39
2022-12-19T18:36:47.512Z,12.18
2022-12-19T18:39:23.799Z,12.31
2022-12-19T18:41:52.559Z,12.11
2022-12-19T18:44:20.780Z,12.22
2022-12-19T18:46:51.629Z,11.97
2022-12-19T18:49:19.456Z,12.24
2022-12-19T18:51:47.559Z,12.00
2022-12-19T18:54:17.092Z,12.05
2022-12-19T18:56:45.501Z,12.20
2022-12-19T18:59:13.990Z,12.09
2022-12-19T19:01:44.967Z,12.18
2022-12-19T19:04:17.600Z,11.93
2022-12-19T19:06:50.988Z,11.87
2022-12-19T19:09:21.643Z,12.18
2022-12-19T19:12:07.653Z,11.85
2022-12-19T19:14:35.620Z,12.06
2022-12-19T19:17:04.667Z,12.11
2022-12-19T19:19:33.858Z,12.16
2022-12-19T19:22:01.662Z,12.08
2022-12-19T19:24:29.468Z,12.12
2022-12-19T19:26:57.202Z,12.12
2022-12-19T19:29:24.977Z,12.12
2022-12-19T19:31:52.908Z,12.14
2022-12-19T19:34:24.341Z,12.18
2022-12-19T19:36:55.816Z,12.23
2022-12-19T19:39:24.009Z,12.25
2022-12-19T19:41:51.769Z,12.36
2022-12-19T19:44:19.525Z,12.67
2022-12-19T19:46:47.374Z,12.56
2022-12-19T19:49:15.457Z,12.45
2022-12-19T19:51:43.369Z,12.31
2022-12-19T19:54:12.644Z,12.47
2022-12-19T19:56:40.423Z,12.50
2022-12-19T19:59:08.346Z,12.47
2022-12-19T20:01:36.211Z,12.48
2022-12-19T20:04:04.340Z,12.45
2022-12-19T20:06:32.178Z,12.53
2022-12-19T20:09:00.150Z,12.30
2022-12-19T20:11:29.353Z,12.41
2022-12-19T20:13:57.234Z,12.51
2022-12-19T20:16:25.161Z,12.49
2022-12-19T20:18:53.764Z,12.45
2022-12-19T20:21:23.877Z,12.42
2022-12-19T20:23:51.955Z,12.69
2022-12-19T20:26:20.155Z,12.58
2022-12-19T20:28:51.637Z,12.68
2022-12-19T20:31:20.057Z,12.62
2022-12-19T20:33:49.067Z,12.79
2022-12-19T20:36:17.921Z,12.53
2022-12-19T20:38:46.221Z,12.57
2022-12-19T20:41:14.216Z,12.56
2022-12-19T20:43:42.089Z,12.72
2022-12-19T20:46:13.083Z,12.41
2022-12-19T20:48:41.202Z,12.31
2022-12-19T20:51:09.877Z,12.26
2022-12-19T20:53:38.645Z,12.26
2022-12-19T20:56:07.784Z,12.18
2022-12-19T20:58:37.397Z,12.18
2022-12-19T21:01:07.225Z,12.20
2022-12-19T21:03:37.776Z,12.12
2022-12-19T21:06:06.442Z,12.14
2022-12-19T21:08:35.058Z,12.32
2022-12-19T21:11:03.828Z,12.24
2022-12-19T21:13:31.770Z,12.46
2022-12-19T21:16:02.763Z,12.18
2022-12-19T21:18:31.094Z,12.25
2022-12-19T21:21:01.180Z,12.45
2022-12-19T21:23:29.605Z,12.44
2022-12-19T21:25:58.563Z,12.57
2022-12-19T21:28:26.369Z,12.59
2022-12-19T21:30:59.769Z,12.51
2022-12-19T21:33:27.817Z,12.57
2022-12-19T21:35:55.646Z,12.58
2022-12-19T21:38:25.418Z,12.43
2022-12-19T21:40:53.168Z,12.35
2022-12-19T21:43:21.028Z,12.66
2022-12-19T21:45:48.835Z,12.45
2022-12-19T21:48:16.637Z,12.45
2022-12-19T21:50:44.388Z,12.51
2022-12-19T21:53:12.145Z,12.94
2022-12-19T21:55:41.270Z,12.96
2022-12-19T21:58:09.037Z,12.66
2022-12-19T22:00:36.833Z,12.56
2022-12-19T22:03:20.099Z,12.71
2022-12-19T22:05:48.048Z,12.63
2022-12-19T22:08:15.834Z,12.73
2022-12-19T22:10:45.007Z,12.54
2022-12-19T22:13:12.888Z,12.77
2022-12-19T22:15:40.600Z,12.55
2022-12-19T22:18:08.603Z,12.66
2022-12-19T22:20:36.349Z,12.52
2022-12-19T22:23:09.734Z,12.61
2022-12-19T22:25:41.128Z,12.79
2022-12-19T22:28:10.488Z,12.74
2022-12-19T22:30:38.268Z,12.46
2022-12-19T22:33:06.075Z,12.66
2022-12-19T22:35:35.400Z,12.62
2022-12-19T22:38:03.157Z,12.65
2022-12-19T22:40:33.057Z,12.60
2022-12-19T22:43:00.847Z,12.69
2022-12-19T22:45:32.190Z,12.76
2022-12-19T22:47:59.958Z,12.75
2022-12-19T22:50:27.831Z,12.84
2022-12-19T22:52:55.674Z,12.71
2022-12-19T22:55:23.426Z,12.65
2022-12-19T22:57:51.190Z,12.80
2022-12-19T23:00:19.387Z,12.71
2022-12-19T23:02:48.749Z,12.93
2022-12-19T23:05:16.723Z,13.01
2022-12-19T23:07:45.338Z,12.87
2022-12-19T23:10:13.381Z,12.95
2022-12-19T23:12:41.079Z,12.99
2022-12-19T23:15:09.397Z,12.92
2022-12-19T23:17:37.101Z,12.96
2022-12-19T23:20:08.635Z,13.13
2022-12-19T23:22:36.405Z,12.99
2022-12-19T23:25:04.555Z,13.08
2022-12-19T23:27:32.501Z,13.21
2022-12-19T23:30:00.251Z,13.55
2022-12-19T23:32:28.156Z,13.52
2022-12-19T23:34:55.921Z,13.42
2022-12-19T23:37:25.031Z,13.26
2022-12-19T23:39:52.783Z,13.35
2022-12-19T23:42:20.519Z,13.19
2022-12-19T23:44:48.345Z,13.20
2022-12-19T23:47:16.103Z,13.32
2022-12-19T23:49:43.866Z,13.54
2022-12-19T23:52:11.672Z,13.44
2022-12-19T23:54:40.892Z,13.43
2022-12-19T23:57:08.841Z,13.51
2022-12-19T23:59:37.069Z,13.53
